createdAt,value
2019-04-03T00:01:04.053Z,34.13
2019-04-03T00:04:10.808Z,30.60
2019-04-03T00:07:18.312Z,34.00
2019-04-03T00:10:26.058Z,31.17
2019-04-03T00:13:34.771Z,39.27
2019-04-03T00:16:43.767Z,33.40
2019-04-03T00:19:51.474Z,27.90
2019-04-03T00:22:59.119Z,33.83
2019-04-03T00:26:06.586Z,27.33
2019-04-03T00:29:14.128Z,38.57
2019-04-03T00:32:21.822Z,33.93
2019-04-03T00:35:30.872Z,33.90
2019-04-03T00:38:38.406Z,40.10
2019-04-03T00:41:46.021Z,40.50
2019-04-03T00:44:54.690Z,31.00
2019-04-03T00:48:02.557Z,36.93
2019-04-03T00:51:10.168Z,38.00
2019-04-03T00:54:17.680Z,31.07
2019-04-03T00:57:26.361Z,29.27
2019-04-03T01:00:35.454Z,31.63
2019-04-03T01:03:43.305Z,33.60
2019-04-03T01:06:50.905Z,38.37
2019-04-03T01:09:59.498Z,32.70
2019-04-03T01:13:07.540Z,36.33
2019-04-03T01:16:15.163Z,30.50
2019-04-03T01:19:22.734Z,38.30
2019-04-03T01:22:30.446Z,42.20
2019-04-03T01:25:39.633Z,49.17
2019-04-03T01:28:47.275Z,31.40
2019-04-03T01:31:54.933Z,42.33
2019-04-03T01:35:02.492Z,32.77
2019-04-03T01:38:10.129Z,38.10
2019-04-03T01:41:20.210Z,31.10
2019-04-03T01:44:26.881Z,35.63
2019-04-03T01:47:34.429Z,42.20
2019-04-03T01:50:42.023Z,39.10
2019-04-03T01:53:49.603Z,31.07
2019-04-03T01:56:57.186Z,27.93
2019-04-03T02:00:07.523Z,34.80
2019-04-03T02:03:15.135Z,36.53
2019-04-03T02:06:22.827Z,28.93
2019-04-03T02:09:30.541Z,35.27
2019-04-03T02:12:38.587Z,32.43
2019-04-03T02:15:46.149Z,35.23
2019-04-03T02:18:55.266Z,33.80
2019-04-03T02:22:03.783Z,35.30
2019-04-03T02:25:11.294Z,29.67
2019-04-03T02:28:18.794Z,31.83
2019-04-03T02:31:27.360Z,33.50
2019-04-03T02:34:36.179Z,42.60
2019-04-03T02:37:44.093Z,38.33
2019-04-03T02:40:51.621Z,37.60
2019-04-03T02:43:59.550Z,35.70
2019-04-03T02:47:07.381Z,31.77
2019-04-03T02:50:21.140Z,36.33
2019-04-03T02:53:30.473Z,36.43
2019-04-03T02:56:37.745Z,41.37
2019-04-03T02:59:45.318Z,33.90
2019-04-03T03:02:52.900Z,40.50
2019-04-03T03:06:01.332Z,35.93
2019-04-03T03:09:13.010Z,38.80
2019-04-03T03:12:20.070Z,36.40
2019-04-03T03:15:29.078Z,36.17
2019-04-03T03:18:37.050Z,35.77
2019-04-03T03:21:46.334Z,36.90
2019-04-03T03:24:55.024Z,38.37
2019-04-03T03:28:02.883Z,35.93
2019-04-03T03:31:11.870Z,33.17
2019-04-03T03:34:45.154Z,43.70
2019-04-03T03:37:34.430Z,42.23
2019-04-03T03:40:42.961Z,33.77
2019-04-03T03:43:50.765Z,37.40
2019-04-03T03:47:02.286Z,34.77
2019-04-03T03:50:10.579Z,34.07
2019-04-03T03:53:18.257Z,38.20
2019-04-03T03:56:26.223Z,37.20
2019-04-03T03:59:34.255Z,39.77
2019-04-03T04:02:44.552Z,40.40
2019-04-03T04:05:54.595Z,39.10
2019-04-03T04:09:01.356Z,45.80
2019-04-03T04:12:10.706Z,47.27
2019-04-03T04:15:19.006Z,42.10
2019-04-03T04:18:26.779Z,31.00
2019-04-03T04:21:35.202Z,37.73
2019-04-03T04:24:42.757Z,40.00
2019-04-03T04:27:50.266Z,39.47
2019-04-03T04:30:58.118Z,39.00
2019-04-03T04:34:05.639Z,35.80
2019-04-03T04:37:14.194Z,37.50
2019-04-03T04:40:21.853Z,39.73
2019-04-03T04:43:29.465Z,44.53
2019-04-03T04:46:37.308Z,40.33
2019-04-03T04:49:44.855Z,39.23
2019-04-03T04:52:52.635Z,40.03
2019-04-03T04:56:00.284Z,42.20
2019-04-03T04:59:07.920Z,41.97
2019-04-03T05:02:17.854Z,34.33
2019-04-03T05:05:27.214Z,38.47
2019-04-03T05:08:35.028Z,33.27
2019-04-03T05:11:42.479Z,35.07
2019-04-03T05:14:49.942Z,44.47
2019-04-03T05:17:58.263Z,47.93
2019-04-03T05:21:05.923Z,35.67
2019-04-03T05:24:13.841Z,40.40
2019-04-03T05:27:21.607Z,44.73
2019-04-03T05:30:33.311Z,40.20
2019-04-03T05:33:41.977Z,28.80
2019-04-03T05:36:49.867Z,39.67
2019-04-03T05:39:57.833Z,60.77
2019-04-03T05:43:05.350Z,44.20
2019-04-03T05:46:12.965Z,37.40
2019-04-03T05:49:21.523Z,44.47
2019-04-03T05:52:29.365Z,47.83
2019-04-03T05:55:36.996Z,38.77
2019-04-03T05:58:54.643Z,45.03
2019-04-03T06:01:53.943Z,48.20
2019-04-03T06:05:01.823Z,40.33
2019-04-03T06:08:09.499Z,47.33
2019-04-03T06:11:16.932Z,47.10
2019-04-03T06:14:24.490Z,34.67
2019-04-03T06:17:32.106Z,41.30
2019-04-03T06:20:42.583Z,40.40
2019-04-03T06:23:49.237Z,31.97
2019-04-03T06:26:57.045Z,51.67
2019-04-03T06:30:05.012Z,42.07
2019-04-03T06:33:12.752Z,43.40
2019-04-03T06:36:20.518Z,30.10
2019-04-03T06:39:31.508Z,38.43
2019-04-03T06:42:37.267Z,34.00
2019-04-03T06:45:44.953Z,36.37
2019-04-03T06:48:55.076Z,32.73
2019-04-03T06:52:01.682Z,37.40
2019-04-03T06:55:09.501Z,34.50
2019-04-03T06:58:18.378Z,34.07
2019-04-03T07:01:26.022Z,39.47
2019-04-03T07:04:34.481Z,39.07
2019-04-03T07:07:42.124Z,35.70
2019-04-03T07:10:55.038Z,36.50
2019-04-03T07:13:59.430Z,31.07
2019-04-03T07:17:07.053Z,30.83
2019-04-03T07:20:18.929Z,33.37
2019-04-03T07:23:24.881Z,29.50
2019-04-03T07:26:35.573Z,24.80
2019-04-03T07:29:42.860Z,24.90
2019-04-03T07:32:50.519Z,32.70
2019-04-03T07:35:58.005Z,31.47
2019-04-03T07:39:10.563Z,21.90
2019-04-03T07:42:17.740Z,24.60
2019-04-03T07:45:25.336Z,29.17
2019-04-03T07:48:33.601Z,26.80
2019-04-03T07:51:41.577Z,28.30
2019-04-03T07:54:52.887Z,31.33
2019-04-03T07:58:00.876Z,28.00
2019-04-03T08:01:10.590Z,22.83
2019-04-03T08:04:20.088Z,26.30
2019-04-03T08:07:27.931Z,27.67
2019-04-03T08:10:37.521Z,29.50
2019-04-03T08:13:44.999Z,28.37
2019-04-03T08:16:52.550Z,24.80
2019-04-03T08:20:00.088Z,24.13
2019-04-03T08:23:07.706Z,31.90
2019-04-03T08:26:18.475Z,26.07
2019-04-03T08:29:24.669Z,23.73
2019-04-03T08:32:32.407Z,31.80
2019-04-03T08:35:40.651Z,24.30
2019-04-03T08:38:48.164Z,21.27
2019-04-03T08:41:56.976Z,24.90
2019-04-03T08:45:06.597Z,23.23
2019-04-03T08:48:14.968Z,23.40
2019-04-03T08:51:24.618Z,22.00
2019-04-03T08:54:32.209Z,34.37
2019-04-03T08:57:39.779Z,25.30
2019-04-03T09:00:47.387Z,23.50
2019-04-03T09:03:54.931Z,23.07
2019-04-03T09:07:02.536Z,23.53
2019-04-03T09:10:11.074Z,23.77
2019-04-03T09:13:22.588Z,32.53
2019-04-03T09:16:30.244Z,21.63
2019-04-03T09:19:41.062Z,23.43
2019-04-03T09:22:46.995Z,19.93
2019-04-03T09:25:55.113Z,25.23
2019-04-03T09:29:02.651Z,24.83
2019-04-03T09:32:10.237Z,25.47
2019-04-03T09:35:17.801Z,23.77
2019-04-03T09:38:25.330Z,27.00
2019-04-03T09:41:33.877Z,22.10
2019-04-03T09:44:41.534Z,25.10
2019-04-03T09:47:49.340Z,21.37
2019-04-03T09:50:56.817Z,25.13
2019-04-03T09:54:04.930Z,26.43
2019-04-03T09:57:12.958Z,25.80
2019-04-03T10:00:21.232Z,25.53
2019-04-03T10:03:31.182Z,19.27
2019-04-03T10:06:39.516Z,20.87
2019-04-03T10:09:47.402Z,27.60
2019-04-03T10:12:55.309Z,18.13
2019-04-03T10:16:03.561Z,25.43
2019-04-03T10:19:13.647Z,23.50
2019-04-03T10:22:21.896Z,21.50
2019-04-03T10:25:30.607Z,26.73
2019-04-03T10:28:41.516Z,24.77
2019-04-03T10:31:47.784Z,19.13
2019-04-03T10:34:57.441Z,21.13
2019-04-03T10:38:04.352Z,21.27
2019-04-03T10:41:12.060Z,18.57
2019-04-03T10:44:19.922Z,26.43
2019-04-03T10:47:40.373Z,26.67
2019-04-03T10:50:38.064Z,23.00
2019-04-03T10:53:45.911Z,22.40
2019-04-03T10:56:53.464Z,22.27
2019-04-03T11:00:01.080Z,24.87
2019-04-03T11:03:08.730Z,28.10
2019-04-03T11:06:16.941Z,20.93
2019-04-03T11:09:24.903Z,22.73
2019-04-03T11:12:32.623Z,26.33
2019-04-03T11:15:43.593Z,23.53
2019-04-03T11:18:58.480Z,19.20
2019-04-03T11:22:02.954Z,25.10
2019-04-03T11:25:13.899Z,29.10
2019-04-03T11:28:20.750Z,23.10
2019-04-03T11:31:33.210Z,24.90
2019-04-03T11:34:39.106Z,22.87
2019-04-03T11:37:46.628Z,28.17
2019-04-03T11:40:54.864Z,23.30
2019-04-03T11:44:02.366Z,26.47
2019-04-03T11:47:12.351Z,24.57
2019-04-03T11:50:19.721Z,28.60
2019-04-03T11:53:27.507Z,21.93
2019-04-03T11:56:35.027Z,21.13
2019-04-03T11:59:42.473Z,24.10
2019-04-03T12:02:50.079Z,23.30
2019-04-03T12:05:57.878Z,18.03
2019-04-03T12:09:08.890Z,23.10
2019-04-03T12:12:16.482Z,20.70
2019-04-03T12:15:24.007Z,23.33
2019-04-03T12:18:34.224Z,20.50
2019-04-03T12:21:42.988Z,19.00
2019-04-03T12:24:50.648Z,21.47
2019-04-03T12:27:58.398Z,17.43
2019-04-03T12:31:06.127Z,21.30
2019-04-03T12:34:14.080Z,24.07
2019-04-03T12:37:24.533Z,21.80
2019-04-03T12:40:32.742Z,24.67
2019-04-03T12:43:41.006Z,23.33
2019-04-03T12:46:48.875Z,19.40
2019-04-03T12:49:56.656Z,23.00
2019-04-03T12:53:04.716Z,25.83
2019-04-03T12:56:12.494Z,22.80
2019-04-03T12:59:20.951Z,26.67
2019-04-03T13:02:28.516Z,20.57
2019-04-03T13:05:37.372Z,24.07
2019-04-03T13:08:46.358Z,20.63
2019-04-03T13:11:54.018Z,21.67
2019-04-03T13:15:02.048Z,19.63
2019-04-03T13:18:11.001Z,21.70
2019-04-03T13:21:18.544Z,24.57
2019-04-03T13:24:26.181Z,28.00
2019-04-03T13:27:34.019Z,21.47
2019-04-03T13:30:43.488Z,31.23
2019-04-03T13:33:51.205Z,19.27
2019-04-03T13:36:58.874Z,19.87
2019-04-03T13:40:07.521Z,18.97
2019-04-03T13:43:15.400Z,18.60
2019-04-03T13:46:23.405Z,21.87
2019-04-03T13:49:31.383Z,16.53
2019-04-03T13:52:43.079Z,20.15
2019-04-03T13:55:48.076Z,18.50
2019-04-03T13:58:55.799Z,18.67
2019-04-03T14:02:04.290Z,25.13
2019-04-03T14:05:14.632Z,15.90
2019-04-03T14:08:22.306Z,25.37
2019-04-03T14:11:30.891Z,26.00
2019-04-03T14:14:38.950Z,25.40
2019-04-03T14:17:55.229Z,20.33
2019-04-03T14:20:56.560Z,20.17
2019-04-03T14:24:07.121Z,16.20
2019-04-03T14:27:22.311Z,18.13
2019-04-03T14:30:23.617Z,17.70
2019-04-03T14:33:41.820Z,23.47
2019-04-03T14:36:40.398Z,27.47
2019-04-03T14:39:48.032Z,21.07
2019-04-03T14:42:57.866Z,67.00
2019-04-03T14:46:04.986Z,50.00
2019-04-03T14:49:12.557Z,22.47
2019-04-03T14:52:20.619Z,20.27
2019-04-03T14:55:28.786Z,19.90
2019-04-03T14:58:37.121Z,15.23
2019-04-03T15:01:44.838Z,19.27
2019-04-03T15:04:52.344Z,15.47
2019-04-03T15:08:00.203Z,24.10
2019-04-03T15:11:07.929Z,18.80
2019-04-03T15:14:15.398Z,32.07
2019-04-03T15:17:22.880Z,31.23
2019-04-03T15:20:32.754Z,31.17
2019-04-03T15:23:42.096Z,26.13
2019-04-03T15:26:50.944Z,29.77
2019-04-03T15:29:58.912Z,27.70
2019-04-03T15:33:06.571Z,16.33
2019-04-03T15:36:14.904Z,21.40
2019-04-03T15:39:22.744Z,18.13
2019-04-03T15:42:30.357Z,20.80
2019-04-03T15:45:37.962Z,21.50
2019-04-03T15:48:45.506Z,14.80
2019-04-03T15:51:53.084Z,19.03
2019-04-03T15:55:03.621Z,23.40
2019-04-03T15:58:10.394Z,26.90
2019-04-03T16:01:18.267Z,23.57
2019-04-03T16:04:27.018Z,23.37
2019-04-03T16:07:36.039Z,26.67
2019-04-03T16:10:44.205Z,26.67
2019-04-03T16:13:52.239Z,22.40
2019-04-03T16:17:01.712Z,21.70
2019-04-03T16:20:10.316Z,31.20
2019-04-03T16:23:18.247Z,29.87
2019-04-03T16:26:25.883Z,19.87
2019-04-03T16:29:33.614Z,21.57
2019-04-03T16:32:41.332Z,28.77
2019-04-03T16:35:49.281Z,26.83
2019-04-03T16:38:58.033Z,25.10
2019-04-03T16:42:06.316Z,26.63
2019-04-03T16:45:14.445Z,26.93
2019-04-03T16:48:22.014Z,23.23
2019-04-03T16:51:31.775Z,22.43
2019-04-03T16:54:43.430Z,23.50
2019-04-03T16:57:49.169Z,26.37
2019-04-03T17:00:56.762Z,29.50
2019-04-03T17:04:05.292Z,26.80
2019-04-03T17:07:13.272Z,29.53
2019-04-03T17:10:20.954Z,24.60
2019-04-03T17:13:28.552Z,29.60
2019-04-03T17:16:37.504Z,46.43
2019-04-03T17:19:45.230Z,49.47
2019-04-03T17:22:53.540Z,43.43
2019-04-03T17:26:01.192Z,53.73
2019-04-03T17:29:13.129Z,29.27
2019-04-03T17:32:20.912Z,26.83
2019-04-03T17:35:28.506Z,35.10
2019-04-03T17:38:36.168Z,37.07
2019-04-03T17:41:43.816Z,32.43
2019-04-03T17:44:51.533Z,24.63
2019-04-03T17:48:02.041Z,29.67
2019-04-03T17:51:10.200Z,27.10
2019-04-03T17:54:17.894Z,33.40
2019-04-03T17:57:25.416Z,35.10
2019-04-03T18:00:32.994Z,39.83
2019-04-03T18:03:40.954Z,41.63
2019-04-03T18:06:48.658Z,19.00
2019-04-03T18:09:56.345Z,38.10
2019-04-03T18:13:05.558Z,37.20
2019-04-03T18:16:13.583Z,29.67
2019-04-03T18:19:23.522Z,50.23
2019-04-03T18:22:31.084Z,63.00
2019-04-03T18:25:38.599Z,50.17
2019-04-03T18:28:46.174Z,32.47
2019-04-03T18:31:53.780Z,34.13
2019-04-03T18:35:01.381Z,35.80
2019-04-03T18:38:09.089Z,49.97
2019-04-03T18:41:16.863Z,57.30
2019-04-03T18:44:27.010Z,58.77
2019-04-03T18:47:40.933Z,56.40
2019-04-03T18:50:44.398Z,64.80
2019-04-03T18:53:51.907Z,69.03
2019-04-03T18:56:59.479Z,94.47
2019-04-03T19:00:07.648Z,130.37
2019-04-03T19:03:15.751Z,104.13
2019-04-03T19:06:23.382Z,100.07
2019-04-03T19:09:31.021Z,106.60
2019-04-03T19:12:38.564Z,70.00
2019-04-03T19:15:46.164Z,51.40
2019-04-03T19:18:53.695Z,46.93
2019-04-03T19:22:01.356Z,55.07
2019-04-03T19:25:10.349Z,57.87
2019-04-03T19:28:18.054Z,48.60
2019-04-03T19:31:25.643Z,45.07
2019-04-03T19:34:33.232Z,40.83
2019-04-03T19:37:40.756Z,47.70
2019-04-03T19:40:48.369Z,39.93
2019-04-03T19:43:57.083Z,29.93
2019-04-03T19:47:05.089Z,61.53
2019-04-03T19:50:14.261Z,50.23
2019-04-03T19:53:22.057Z,50.30
2019-04-03T19:56:30.047Z,40.13
2019-04-03T19:59:37.729Z,54.77
2019-04-03T20:02:45.345Z,52.77
2019-04-03T20:05:55.050Z,50.10
2019-04-03T20:09:02.421Z,41.67
2019-04-03T20:12:11.519Z,33.10
2019-04-03T20:15:19.021Z,28.37
2019-04-03T20:18:26.670Z,39.00
2019-04-03T20:21:35.989Z,34.50
2019-04-03T20:24:44.284Z,37.07
2019-04-03T20:27:52.452Z,48.03
2019-04-03T20:31:00.049Z,39.93
2019-04-03T20:34:08.354Z,23.97
2019-04-03T20:37:16.201Z,28.87
2019-04-03T20:40:23.899Z,30.90
2019-04-03T20:43:31.478Z,35.90
2019-04-03T20:46:39.014Z,39.30
2019-04-03T20:49:46.527Z,39.67
2019-04-03T20:52:56.830Z,33.90
2019-04-03T20:56:03.516Z,32.97
2019-04-03T20:59:11.981Z,32.50
2019-04-03T21:02:19.961Z,37.17
2019-04-03T21:05:27.643Z,41.13
2019-04-03T21:08:35.267Z,35.37
2019-04-03T21:11:42.852Z,30.00
2019-04-03T21:14:50.498Z,26.53
2019-04-03T21:17:58.218Z,25.23
2019-04-03T21:21:05.717Z,28.67
2019-04-03T21:24:13.304Z,32.20
2019-04-03T21:27:20.881Z,35.93
2019-04-03T21:30:28.440Z,28.73
2019-04-03T21:33:36.984Z,39.03
2019-04-03T21:36:44.611Z,39.53
2019-04-03T21:39:52.231Z,34.70
2019-04-03T21:42:59.829Z,56.00
2019-04-03T21:46:08.902Z,59.90
2019-04-03T21:49:17.455Z,56.67
2019-04-03T21:52:26.124Z,46.50
2019-04-03T21:55:34.833Z,38.67
2019-04-03T21:58:42.392Z,48.33
2019-04-03T22:01:49.979Z,48.37
2019-04-03T22:04:57.469Z,92.67
2019-04-03T22:08:05.175Z,72.07
2019-04-03T22:11:12.676Z,61.13
2019-04-03T22:14:20.245Z,65.60
2019-04-03T22:17:28.106Z,82.33
2019-04-03T22:20:35.596Z,59.57
2019-04-03T22:23:43.187Z,53.50
2019-04-03T22:26:50.873Z,50.60
2019-04-03T22:29:58.594Z,43.60
2019-04-03T22:33:06.172Z,45.37
2019-04-03T22:36:13.676Z,47.97
2019-04-03T22:39:21.240Z,50.50
2019-04-03T22:42:28.726Z,43.57
2019-04-03T22:45:36.228Z,50.03
2019-04-03T22:48:44.036Z,60.27
2019-04-03T22:51:51.643Z,50.30
2019-04-03T22:54:59.120Z,55.90
2019-04-03T22:58:06.618Z,45.03
2019-04-03T23:01:14.424Z,51.53
2019-04-03T23:04:21.938Z,50.13
2019-04-03T23:07:29.590Z,56.87
2019-04-03T23:10:37.276Z,55.57
2019-04-03T23:13:44.822Z,51.20
2019-04-03T23:16:52.406Z,56.50
2019-04-03T23:19:59.942Z,51.40
2019-04-03T23:23:07.782Z,43.90
2019-04-03T23:26:15.586Z,52.63
2019-04-03T23:29:23.014Z,35.70
2019-04-03T23:32:32.034Z,33.13
2019-04-03T23:35:40.634Z,35.47
2019-04-03T23:38:48.180Z,34.40
2019-04-03T23:41:55.809Z,34.53
2019-04-03T23:45:03.372Z,34.43
2019-04-03T23:48:10.839Z,35.30
2019-04-03T23:51:23.516Z,36.70
2019-04-03T23:54:27.555Z,33.10
2019-04-03T23:57:35.122Z,33.90
